Time;durP1;ratioP1;P1;durP2;ratioP2;P2;SDS_P1;SDS_P2;PMS_P1;PMS_P2;Temp;Humidity;BMP_temperature;BMP_pressure;BME280_temperature;BME280_humidity;BME280_pressure;Samples;Min_cycle;Max_cycle;Signal;HPM_P1;HPM_P2
2022/09/13 00:00:37;;;;;;;3.50;1.90;;;20.90;81.60;;;;;;5061524;28;20104;-82
2022/09/13 00:03:02;;;;;;;2.03;1.70;;;20.80;81.70;;;;;;5071467;28;20028;-82
2022/09/13 00:05:29;;;;;;;3.03;1.90;;;20.80;81.80;;;;;;5045813;28;20028;-81
2022/09/13 00:07:55;;;;;;;3.05;1.90;;;20.80;81.80;;;;;;5048046;28;20032;-82
2022/09/13 00:10:21;;;;;;;3.42;1.92;;;20.80;81.90;;;;;;5044794;28;20024;-82
2022/09/13 00:12:48;;;;;;;3.07;1.80;;;20.70;81.80;;;;;;5084242;28;20341;-82
2022/09/13 00:15:14;;;;;;;2.25;1.90;;;20.70;81.90;;;;;;5061731;28;20031;-82
2022/09/13 00:17:40;;;;;;;3.03;1.80;;;20.70;82.00;;;;;;5089381;28;20020;-82
2022/09/13 00:20:06;;;;;;;4.03;1.77;;;20.70;82.10;;;;;;5099559;28;20214;-82
2022/09/13 00:22:32;;;;;;;3.78;1.70;;;20.60;82.20;;;;;;5047957;28;20259;-81
2022/09/13 00:24:57;;;;;;;2.50;1.90;;;20.60;82.30;;;;;;5062494;28;20032;-81
2022/09/13 00:27:23;;;;;;;2.70;1.80;;;20.50;82.50;;;;;;5082436;28;20039;-82
2022/09/13 00:29:49;;;;;;;2.47;1.98;;;20.50;82.70;;;;;;5085446;28;20191;-82
2022/09/13 00:32:14;;;;;;;2.60;1.83;;;20.50;82.80;;;;;;5064104;28;20054;-82
2022/09/13 00:34:40;;;;;;;2.60;2.00;;;20.50;83.00;;;;;;5079370;28;20269;-82
2022/09/13 00:37:05;;;;;;;2.83;1.80;;;20.50;83.20;;;;;;5074117;28;20411;-82
2022/09/13 00:39:32;;;;;;;2.80;1.90;;;20.50;83.30;;;;;;5060352;28;20052;-82
2022/09/13 00:41:57;;;;;;;3.97;2.00;;;20.60;83.50;;;;;;5056128;28;20281;-82
2022/09/13 00:45:02;;;;;;;2.78;2.03;;;20.50;83.60;;;;;;5065753;28;20032;-82
2022/09/13 00:47:49;;;;;;;2.80;1.90;;;20.50;83.70;;;;;;5062330;28;20046;-82
2022/09/13 00:50:21;;;;;;;3.17;1.97;;;20.50;83.80;;;;;;5087408;28;20096;-82
2022/09/13 00:52:54;;;;;;;3.65;2.10;;;20.60;84.00;;;;;;5075555;28;20458;-82
2022/09/13 00:55:27;;;;;;;3.63;1.90;;;20.50;84.10;;;;;;5077171;28;20031;-82
2022/09/13 00:57:57;;;;;;;2.40;1.90;;;20.50;84.20;;;;;;5075415;27;20227;-82
2022/09/13 01:00:23;;;;;;;3.15;2.28;;;20.60;84.30;;;;;;5068430;28;20031;-82
2022/09/13 01:03:03;;;;;;;2.33;1.73;;;20.60;84.40;;;;;;5059585;28;20055;-82
2022/09/13 01:05:34;;;;;;;4.03;2.00;;;20.60;84.40;;;;;;5085648;28;20455;-82
2022/09/13 01:08:00;;;;;;;2.90;1.83;;;20.60;84.40;;;;;;5064984;28;20027;-82
2022/09/13 01:10:27;;;;;;;3.45;2.10;;;20.60;85.00;;;;;;5061868;28;20024;-82
2022/09/13 01:13:00;;;;;;;3.33;2.00;;;20.60;84.50;;;;;;5083950;28;20121;-82
2022/09/13 01:15:26;;;;;;;3.88;1.92;;;20.60;84.50;;;;;;5078649;28;20055;-82
2022/09/13 01:17:53;;;;;;;3.75;2.13;;;20.60;84.60;;;;;;5078405;28;20611;-82
2022/09/13 01:20:26;;;;;;;3.55;2.08;;;20.60;84.70;;;;;;5084062;28;20114;-82
2022/09/13 01:23:01;;;;;;;3.30;2.20;;;20.60;84.80;;;;;;5050454;28;20436;-82
2022/09/13 01:25:39;;;;;;;3.20;2.10;;;20.60;84.90;;;;;;5089905;28;20325;-82
2022/09/13 01:28:14;;;;;;;2.80;1.92;;;20.60;85.70;;;;;;5094904;27;20039;-82
2022/09/13 01:30:50;;;;;;;3.13;2.00;;;20.50;85.00;;;;;;5070686;28;20142;-82
2022/09/13 01:33:47;;;;;;;3.25;2.00;;;20.50;85.80;;;;;;5083291;28;20506;-82
2022/09/13 01:36:24;;;;;;;3.47;2.10;;;20.50;85.10;;;;;;5052969;28;20074;-82
2022/09/13 01:38:53;;;;;;;3.58;2.00;;;20.50;85.30;;;;;;5080278;28;20047;-82
2022/09/13 01:41:49;;;;;;;4.22;2.08;;;20.50;85.40;;;;;;5087565;28;20032;-82
2022/09/13 01:44:33;;;;;;;2.88;1.80;;;20.50;85.30;;;;;;5066897;28;20438;-82
2022/09/13 01:47:18;;;;;;;2.28;1.70;;;20.50;85.60;;;;;;5057767;28;20056;-82
2022/09/13 01:50:01;;;;;;;2.83;1.80;;;20.50;85.70;;;;;;5044937;28;20225;-82
2022/09/13 01:52:46;;;;;;;2.60;1.88;;;20.50;85.70;;;;;;5068189;28;20029;-82
2022/09/13 01:55:58;;;;;;;2.65;1.70;;;20.50;85.70;;;;;;5069295;28;20084;-82
2022/09/13 01:58:49;;;;;;;3.13;1.75;;;20.50;85.60;;;;;;5068482;28;20036;-82
2022/09/13 02:01:24;;;;;;;2.03;1.65;;;20.50;85.60;;;;;;5087734;28;20032;-82
2022/09/13 02:04:05;;;;;;;2.67;1.70;;;20.40;85.90;;;;;;5034683;28;20586;-82
2022/09/13 02:06:45;;;;;;;2.63;2.00;;;20.40;85.90;;;;;;5063224;28;20024;-82
2022/09/13 02:09:19;;;;;;;2.35;1.90;;;20.40;86.00;;;;;;5061553;28;20034;-82
2022/09/13 02:11:49;;;;;;;3.38;1.85;;;20.50;86.10;;;;;;5053268;28;20130;-82
2022/09/13 02:14:20;;;;;;;2.97;1.77;;;20.40;86.10;;;;;;5064439;28;20028;-82
2022/09/13 02:17:01;;;;;;;2.40;1.60;;;20.40;86.10;;;;;;5081211;28;20603;-82
2022/09/13 02:19:39;;;;;;;3.00;1.83;;;20.40;86.10;;;;;;5052214;28;20024;-82
2022/09/13 02:22:07;;;;;;;2.97;1.73;;;20.30;86.30;;;;;;5078127;28;20032;-82
2022/09/13 02:24:37;;;;;;;2.67;1.73;;;20.40;86.40;;;;;;5079381;28;20059;-82
2022/09/13 02:27:08;;;;;;;2.97;1.67;;;20.30;86.30;;;;;;5061347;28;20035;-82
2022/09/13 02:29:36;;;;;;;2.20;1.60;;;20.30;86.40;;;;;;5069737;28;20023;-82
2022/09/13 02:32:05;;;;;;;2.75;1.80;;;20.30;86.40;;;;;;5094038;28;20016;-82
2022/09/13 02:34:37;;;;;;;2.35;1.60;;;20.30;86.40;;;;;;5068621;28;20074;-82
2022/09/13 02:37:06;;;;;;;2.67;1.95;;;20.30;86.40;;;;;;5064613;28;20028;-82
2022/09/13 02:39:34;;;;;;;3.40;2.10;;;20.30;86.40;;;;;;5048312;28;20542;-82
2022/09/13 02:42:14;;;;;;;2.73;1.80;;;20.20;86.40;;;;;;5061499;28;20040;-82
2022/09/13 02:44:44;;;;;;;3.33;1.80;;;20.20;86.40;;;;;;5051752;28;20150;-82
2022/09/13 02:47:37;;;;;;;2.75;1.77;;;20.20;86.50;;;;;;5081167;28;20043;-82
2022/09/13 02:50:17;;;;;;;2.63;1.80;;;20.20;86.50;;;;;;5079039;28;20028;-82
2022/09/13 02:53:10;;;;;;;2.40;1.60;;;20.20;86.60;;;;;;5070619;28;20058;-82
2022/09/13 02:56:04;;;;;;;3.13;1.90;;;20.20;86.70;;;;;;5067738;28;20029;-82
2022/09/13 02:58:47;;;;;;;3.55;1.83;;;20.10;87.10;;;;;;5081329;28;20024;-82
2022/09/13 03:01:14;;;;;;;2.63;1.80;;;20.10;86.90;;;;;;5064230;28;20055;-82
2022/09/13 03:03:40;;;;;;;2.03;1.60;;;20.10;87.00;;;;;;5082780;28;20092;-82
2022/09/13 03:06:06;;;;;;;3.73;1.93;;;20.00;87.10;;;;;;5068046;28;20021;-82
2022/09/13 03:08:33;;;;;;;2.72;1.80;;;20.00;87.20;;;;;;5057175;28;20028;-82
2022/09/13 03:11:21;;;;;;;2.65;1.80;;;20.00;87.40;;;;;;5078849;28;20120;-81
2022/09/13 03:14:15;;;;;;;2.15;1.70;;;20.00;87.50;;;;;;5074627;28;20035;-82
2022/09/13 03:16:53;;;;;;;2.60;1.83;;;20.00;87.50;;;;;;5067828;28;20703;-82
2022/09/13 03:19:37;;;;;;;2.30;1.87;;;19.90;87.50;;;;;;5053656;28;20032;-82
2022/09/13 03:22:30;;;;;;;2.70;1.70;;;19.90;87.60;;;;;;5029643;28;20024;-82
2022/09/13 03:25:26;;;;;;;2.85;1.73;;;19.90;87.70;;;;;;5088556;28;20052;-82
2022/09/13 03:28:23;;;;;;;3.75;1.90;;;19.90;87.80;;;;;;5068540;28;20128;-82
2022/09/13 03:30:55;;;;;;;2.50;1.80;;;19.80;87.80;;;;;;5070655;28;20240;-82
2022/09/13 03:33:50;;;;;;;2.13;1.70;;;19.80;88.00;;;;;;5065323;28;20392;-82
2022/09/13 03:36:27;;;;;;;3.85;1.90;;;19.80;88.10;;;;;;5053024;28;20040;-82
2022/09/13 03:39:02;;;;;;;3.97;1.90;;;19.80;88.30;;;;;;5067039;28;20342;-82
2022/09/13 03:41:33;;;;;;;2.45;1.67;;;19.80;88.40;;;;;;5066017;28;20036;-82
2022/09/13 03:44:04;;;;;;;2.92;1.65;;;19.70;89.30;;;;;;5069571;28;20425;-82
2022/09/13 03:46:33;;;;;;;2.63;1.90;;;19.80;88.60;;;;;;5055943;28;20085;-82
2022/09/13 03:49:14;;;;;;;2.70;1.70;;;19.80;88.80;;;;;;5039958;28;20024;-82
2022/09/13 03:51:42;;;;;;;2.50;1.60;;;19.70;88.80;;;;;;5056800;28;20502;-82
2022/09/13 03:54:13;;;;;;;2.25;1.70;;;19.80;88.90;;;;;;5062198;28;20016;-82
2022/09/13 03:56:39;;;;;;;2.13;1.58;;;19.80;89.00;;;;;;5058578;28;20251;-82
2022/09/13 03:59:05;;;;;;;2.50;1.90;;;19.80;89.00;;;;;;5089478;28;20091;-82
2022/09/13 04:01:31;;;;;;;2.45;1.70;;;19.80;89.00;;;;;;5048878;28;20242;-82
2022/09/13 04:03:56;;;;;;;2.57;1.70;;;19.80;89.00;;;;;;5078014;28;20031;-82
2022/09/13 04:06:22;;;;;;;2.58;1.65;;;19.80;89.10;;;;;;5075379;28;20699;-82
2022/09/13 04:08:47;;;;;;;2.50;1.60;;;19.80;89.10;;;;;;5060031;28;20101;-82
2022/09/13 04:11:13;;;;;;;2.03;1.53;;;19.80;89.10;;;;;;5066942;28;20360;-82
2022/09/13 04:13:39;;;;;;;2.10;1.65;;;19.80;89.10;;;;;;5073905;28;20047;-82
2022/09/13 04:16:06;;;;;;;2.83;1.80;;;19.80;89.10;;;;;;5087105;28;20023;-82
2022/09/13 04:18:32;;;;;;;2.20;1.65;;;19.80;89.20;;;;;;5065645;28;20023;-82
2022/09/13 04:20:59;;;;;;;2.95;1.80;;;19.80;89.30;;;;;;5049543;28;20023;-81
2022/09/13 04:23:26;;;;;;;2.80;2.00;;;19.80;89.30;;;;;;5072963;28;20111;-81
2022/09/13 04:25:52;;;;;;;2.53;1.93;;;19.80;89.40;;;;;;5069825;28;20257;-82
2022/09/13 04:28:19;;;;;;;3.95;1.85;;;19.80;89.50;;;;;;5079246;28;20050;-82
2022/09/13 04:30:46;;;;;;;2.10;1.60;;;19.80;89.50;;;;;;5077279;28;20216;-82
2022/09/13 04:33:12;;;;;;;2.50;1.90;;;19.80;89.60;;;;;;5076878;27;20027;-82
2022/09/13 04:35:38;;;;;;;2.90;1.87;;;19.80;89.70;;;;;;5058588;28;20665;-82
2022/09/13 04:38:04;;;;;;;2.75;1.80;;;19.80;89.80;;;;;;5078820;28;20035;-82
2022/09/13 04:40:30;;;;;;;1.98;1.60;;;19.70;89.80;;;;;;5067939;28;20028;-82
2022/09/13 04:42:56;;;;;;;3.00;1.73;;;19.70;89.90;;;;;;5055047;28;20020;-82
2022/09/13 04:45:22;;;;;;;2.83;1.80;;;19.70;90.00;;;;;;5069449;28;20569;-82
2022/09/13 04:47:55;;;;;;;2.47;1.83;;;19.80;90.00;;;;;;5072982;28;20067;-82
2022/09/13 04:50:21;;;;;;;2.65;1.83;;;19.70;90.00;;;;;;5067790;28;20051;-82
2022/09/13 04:52:47;;;;;;;2.83;1.77;;;19.70;90.00;;;;;;5045751;28;20400;-82
2022/09/13 04:55:13;;;;;;;1.80;1.58;;;19.70;90.10;;;;;;5064159;28;20024;-82
2022/09/13 04:57:42;;;;;;;2.35;1.50;;;19.70;90.10;;;;;;5077861;28;20115;-82
2022/09/13 05:00:09;;;;;;;2.78;1.67;;;19.70;90.10;;;;;;5075411;27;20036;-82
2022/09/13 05:02:34;;;;;;;2.10;1.40;;;19.70;90.20;;;;;;5049704;28;20895;-82
2022/09/13 05:05:00;;;;;;;2.05;1.63;;;19.70;90.20;;;;;;5062031;28;20587;-82
2022/09/13 05:07:25;;;;;;;2.30;1.80;;;19.70;90.30;;;;;;5053638;28;20531;-82
2022/09/13 05:09:51;;;;;;;2.67;1.55;;;19.70;90.20;;;;;;5075471;28;20020;-82
2022/09/13 05:12:17;;;;;;;2.83;1.80;;;19.70;90.30;;;;;;5040294;28;20025;-82
2022/09/13 05:14:42;;;;;;;2.73;1.80;;;19.70;90.30;;;;;;5061007;28;20330;-81
2022/09/13 05:17:08;;;;;;;1.90;1.57;;;19.70;90.30;;;;;;5069741;28;20366;-82
2022/09/13 05:19:34;;;;;;;2.47;1.70;;;19.70;90.40;;;;;;5060730;27;20446;-82
2022/09/13 05:22:00;;;;;;;2.97;1.70;;;19.70;90.50;;;;;;5060140;28;20480;-82
2022/09/13 05:24:26;;;;;;;3.33;1.77;;;19.70;90.50;;;;;;5047939;28;20125;-82
2022/09/13 05:26:52;;;;;;;4.63;1.70;;;19.70;90.50;;;;;;5051128;28;20137;-82
2022/09/13 05:29:18;;;;;;;3.05;1.70;;;19.70;90.60;;;;;;5042923;28;20039;-82
2022/09/13 05:31:43;;;;;;;3.43;1.70;;;19.70;90.70;;;;;;5059852;28;20019;-82
2022/09/13 05:34:11;;;;;;;2.70;2.00;;;19.70;90.70;;;;;;5062378;28;20397;-82
2022/09/13 05:36:37;;;;;;;2.72;1.77;;;19.70;90.80;;;;;;5059275;28;20223;-82
2022/09/13 05:39:04;;;;;;;2.70;1.57;;;19.70;90.80;;;;;;5041563;28;20258;-82
2022/09/13 05:41:29;;;;;;;2.50;1.52;;;19.70;90.90;;;;;;5056254;28;20020;-81
2022/09/13 05:43:55;;;;;;;3.20;1.65;;;19.70;90.90;;;;;;5045776;28;20542;-81
2022/09/13 05:46:21;;;;;;;3.70;1.70;;;19.70;91.00;;;;;;5062398;28;20034;-82
2022/09/13 05:48:47;;;;;;;3.45;1.70;;;19.80;91.00;;;;;;5052410;28;20032;-82
2022/09/13 05:51:19;;;;;;;2.70;1.70;;;19.70;91.10;;;;;;5069111;28;20020;-82
2022/09/13 05:53:48;;;;;;;3.45;1.70;;;19.80;91.10;;;;;;5040613;28;20024;-82
2022/09/13 05:56:15;;;;;;;2.35;1.70;;;19.80;91.20;;;;;;5064993;28;20021;-82
2022/09/13 05:58:43;;;;;;;2.95;1.58;;;19.70;91.20;;;;;;5038354;28;20021;-82
2022/09/13 06:01:10;;;;;;;4.13;1.75;;;19.80;91.20;;;;;;5072018;27;20024;-82
2022/09/13 06:03:36;;;;;;;2.97;1.70;;;19.80;91.30;;;;;;5065184;28;20033;-82
2022/09/13 06:06:03;;;;;;;3.75;1.83;;;19.80;91.40;;;;;;5060016;28;20226;-82
2022/09/13 06:08:30;;;;;;;3.33;1.73;;;19.80;91.40;;;;;;5057153;28;20057;-82
2022/09/13 06:11:04;;;;;;;2.45;1.70;;;19.80;91.50;;;;;;5056803;28;20343;-82
2022/09/13 06:13:31;;;;;;;3.33;1.85;;;19.90;91.50;;;;;;5072301;27;20032;-82
2022/09/13 06:15:58;;;;;;;3.40;1.73;;;19.90;91.50;;;;;;5062281;28;20276;-82
2022/09/13 06:18:25;;;;;;;2.33;1.65;;;19.90;91.60;;;;;;5069220;28;20020;-82
2022/09/13 06:20:51;;;;;;;2.10;1.63;;;19.90;91.60;;;;;;5057596;28;20423;-82
2022/09/13 06:23:16;;;;;;;2.08;1.80;;;20.00;91.60;;;;;;5076435;28;20442;-82
2022/09/13 06:25:42;;;;;;;2.27;1.63;;;20.00;91.70;;;;;;5056914;28;20024;-82
2022/09/13 06:28:08;;;;;;;2.15;1.73;;;20.00;91.70;;;;;;5055257;28;20024;-82
2022/09/13 06:30:34;;;;;;;1.98;1.50;;;20.00;91.80;;;;;;5073513;28;20511;-82
2022/09/13 06:33:00;;;;;;;2.70;1.67;;;20.10;91.90;;;;;;5043035;28;21392;-82
2022/09/13 06:35:25;;;;;;;2.20;1.60;;;20.10;92.00;;;;;;5068103;28;20549;-82
2022/09/13 06:37:56;;;;;;;2.30;1.73;;;20.10;92.00;;;;;;5067055;28;20182;-82
2022/09/13 06:40:21;;;;;;;3.80;1.80;;;20.20;92.10;;;;;;5060108;28;20020;-82
2022/09/13 06:42:47;;;;;;;2.05;1.50;;;20.20;92.10;;;;;;5053831;28;20298;-82
2022/09/13 06:45:13;;;;;;;3.33;1.83;;;20.20;92.20;;;;;;5065188;28;20110;-82
2022/09/13 06:47:39;;;;;;;5.13;1.70;;;20.30;92.30;;;;;;5048377;28;20080;-82
2022/09/13 06:50:06;;;;;;;3.53;1.70;;;20.30;92.40;;;;;;5066449;28;20211;-82
2022/09/13 06:52:32;;;;;;;2.87;2.03;;;20.40;92.40;;;;;;5049193;28;20193;-82
2022/09/13 06:54:57;;;;;;;2.55;1.88;;;20.40;92.50;;;;;;5061265;28;20243;-82
2022/09/13 06:57:23;;;;;;;2.10;1.63;;;20.50;92.60;;;;;;5057038;28;20519;-82
2022/09/13 06:59:49;;;;;;;3.33;1.90;;;20.60;92.80;;;;;;5058552;28;20683;-82
2022/09/13 07:02:15;;;;;;;4.28;1.88;;;20.60;92.90;;;;;;5059559;28;20500;-82
2022/09/13 07:04:40;;;;;;;3.87;1.90;;;20.70;93.00;;;;;;5052699;28;20282;-82
2022/09/13 07:07:06;;;;;;;3.88;1.90;;;20.80;93.10;;;;;;5086215;28;20034;-82
2022/09/13 07:09:33;;;;;;;3.20;1.60;;;20.80;93.20;;;;;;5063043;28;20121;-82
2022/09/13 07:11:59;;;;;;;3.10;1.90;;;21.00;93.30;;;;;;5062678;28;20024;-82
2022/09/13 07:14:27;;;;;;;4.38;2.10;;;21.10;93.40;;;;;;5060413;28;20019;-82
2022/09/13 07:16:54;;;;;;;3.60;1.90;;;21.10;93.40;;;;;;5059701;28;20025;-82
2022/09/13 07:19:21;;;;;;;4.18;1.92;;;21.30;93.50;;;;;;5063636;28;20090;-82
2022/09/13 07:21:48;;;;;;;4.03;1.88;;;21.40;93.50;;;;;;5064149;28;20021;-82
2022/09/13 07:24:15;;;;;;;3.92;1.95;;;21.50;93.50;;;;;;5060532;28;20622;-82
2022/09/13 07:26:41;;;;;;;3.85;2.00;;;21.60;93.60;;;;;;5049888;28;20141;-82
2022/09/13 07:29:10;;;;;;;3.03;2.10;;;21.70;93.80;;;;;;5062118;28;20024;-82
2022/09/13 07:31:38;;;;;;;4.40;1.90;;;21.80;93.90;;;;;;5039007;28;20249;-82
2022/09/13 07:34:12;;;;;;;3.90;1.90;;;22.00;94.10;;;;;;5074127;28;20360;-82
2022/09/13 07:36:38;;;;;;;3.33;2.17;;;22.10;93.70;;;;;;5066311;28;20020;-82
2022/09/13 07:39:04;;;;;;;3.10;1.97;;;22.40;94.50;;;;;;5048371;28;20027;-82
2022/09/13 07:41:31;;;;;;;3.47;2.05;;;22.50;94.50;;;;;;5071819;28;20655;-82
2022/09/13 07:43:59;;;;;;;3.28;2.10;;;22.70;94.30;;;;;;5036254;28;20024;-82
2022/09/13 07:46:27;;;;;;;3.20;2.15;;;22.90;94.30;;;;;;5044358;28;20092;-82
2022/09/13 07:48:55;;;;;;;3.83;2.00;;;23.00;94.10;;;;;;5051750;28;20032;-82
2022/09/13 07:51:23;;;;;;;5.13;2.00;;;23.20;93.80;;;;;;5060906;28;20021;-82
2022/09/13 07:53:50;;;;;;;3.08;1.98;;;23.30;93.60;;;;;;5072880;28;20027;-82
2022/09/13 07:56:18;;;;;;;3.78;2.08;;;23.40;93.50;;;;;;5049321;28;20503;-82
2022/09/13 07:58:46;;;;;;;4.68;2.20;;;23.50;93.10;;;;;;5057197;28;23793;-82
2022/09/13 08:01:16;;;;;;;4.33;2.10;;;23.60;92.90;;;;;;5039495;28;20145;-82
2022/09/13 08:03:42;;;;;;;3.25;2.08;;;23.60;92.90;;;;;;5070217;28;20043;-82
2022/09/13 08:06:08;;;;;;;3.88;2.40;;;23.70;93.10;;;;;;5068089;28;20032;-82
2022/09/13 08:08:35;;;;;;;6.47;2.70;;;23.80;93.30;;;;;;5082466;28;20028;-82
2022/09/13 08:11:02;;;;;;;5.90;2.67;;;23.90;93.40;;;;;;5043076;28;20051;-82
2022/09/13 08:13:28;;;;;;;4.18;2.42;;;24.10;93.50;;;;;;5056225;28;20024;-82
2022/09/13 08:15:55;;;;;;;4.60;2.90;;;24.30;94.20;;;;;;5052710;28;20495;-82
2022/09/13 08:18:21;;;;;;;5.38;2.88;;;24.60;95.80;;;;;;5058444;28;20024;-83
2022/09/13 08:20:46;;;;;;;4.83;2.80;;;25.10;97.40;;;;;;5071155;28;20133;-83
2022/09/13 08:23:13;;;;;;;5.10;2.92;;;25.70;98.50;;;;;;5060987;28;20668;-83
2022/09/13 08:25:39;;;;;;;5.22;3.28;;;26.30;98.70;;;;;;5054355;28;20024;-83
2022/09/13 08:28:12;;;;;;;5.18;3.58;;;26.90;98.00;;;;;;5068867;28;20051;-83
2022/09/13 08:30:38;;;;;;;6.30;3.60;;;27.60;96.30;;;;;;5046737;28;20115;-83
2022/09/13 08:33:04;;;;;;;4.63;3.30;;;28.10;97.00;;;;;;5060773;28;20046;-83
2022/09/13 08:35:31;;;;;;;3.63;3.03;;;28.70;96.40;;;;;;5076266;28;20125;-83
2022/09/13 08:37:57;;;;;;;4.40;2.88;;;29.30;95.70;;;;;;5064702;28;20028;-83
2022/09/13 08:40:26;;;;;;;5.05;3.13;;;29.70;94.10;;;;;;5050373;28;20316;-83
2022/09/13 08:43:21;;;;;;;3.15;2.72;;;30.10;92.50;;;;;;5068020;28;20024;-83
2022/09/13 08:45:53;;;;;;;4.72;3.10;;;30.40;88.60;;;;;;5046726;28;20432;-83
2022/09/13 08:48:27;;;;;;;4.23;3.13;;;30.60;90.30;;;;;;5057111;28;20286;-84
2022/09/13 08:50:57;;;;;;;5.47;3.42;;;30.90;90.30;;;;;;5075764;28;20019;-83
2022/09/13 08:53:28;;;;;;;4.93;3.05;;;31.20;91.20;;;;;;5071148;28;21407;-82
2022/09/13 08:56:07;;;;;;;5.28;3.20;;;31.40;90.50;;;;;;5052220;28;20396;-83
2022/09/13 08:58:51;;;;;;;3.58;2.92;;;31.70;89.50;;;;;;5060402;28;20351;-83
2022/09/13 09:01:58;;;;;;;3.67;3.00;;;32.10;85.20;;;;;;5073306;27;20044;-83
2022/09/13 09:04:27;;;;;;;3.42;3.00;;;32.30;82.90;;;;;;5041349;28;20208;-83
2022/09/13 09:07:01;;;;;;;4.00;2.95;;;32.40;86.20;;;;;;5076659;28;20041;-84
2022/09/13 09:09:33;;;;;;;4.90;3.25;;;32.60;82.50;;;;;;5059383;28;20028;-83
2022/09/13 09:12:16;;;;;;;4.45;3.30;;;32.80;84.30;;;;;;5060203;28;20364;-83
2022/09/13 09:14:45;;;;;;;3.47;3.10;;;32.80;79.70;;;;;;5060062;28;20074;-84
2022/09/13 09:17:27;;;;;;;4.57;3.20;;;32.80;83.20;;;;;;5064192;28;20480;-83
2022/09/13 09:20:15;;;;;;;3.42;2.85;;;32.80;78.00;;;;;;5060515;28;20036;-83
2022/09/13 09:22:43;;;;;;;3.38;2.90;;;32.70;76.30;;;;;;5071695;28;20081;-83
2022/09/13 09:25:10;;;;;;;3.67;3.00;;;32.60;79.30;;;;;;5060150;28;20497;-83
2022/09/13 09:27:36;;;;;;;3.80;2.83;;;32.50;78.00;;;;;;5046636;28;20468;-83
2022/09/13 09:30:02;;;;;;;3.83;2.90;;;32.40;78.60;;;;;;5063983;28;20060;-83
2022/09/13 09:33:03;;;;;;;3.53;3.22;;;32.30;78.80;;;;;;5051583;28;20023;-83
2022/09/13 09:35:53;;;;;;;4.10;3.10;;;32.40;74.70;;;;;;5050375;28;20073;-84
2022/09/13 09:38:36;;;;;;;4.07;2.87;;;32.60;75.80;;;;;;5041883;28;20458;-83
2022/09/13 09:41:18;;;;;;;3.58;2.80;;;32.80;77.40;;;;;;5070040;28;20063;-83
2022/09/13 09:43:54;;;;;;;3.20;2.72;;;33.10;78.10;;;;;;5063822;28;20059;-83
2022/09/13 09:46:24;;;;;;;3.58;2.60;;;33.40;76.90;;;;;;5061445;28;20056;-83
2022/09/13 09:48:59;;;;;;;5.43;2.92;;;33.50;78.30;;;;;;5061439;28;20615;-83
2022/09/13 09:51:27;;;;;;;3.10;2.40;;;33.70;73.50;;;;;;5054675;28;20040;-83
2022/09/13 09:54:04;;;;;;;3.03;2.20;;;33.70;74.60;;;;;;5041436;28;20122;-83
2022/09/13 09:56:32;;;;;;;2.90;2.40;;;33.70;71.20;;;;;;5053149;28;20399;-83
2022/09/13 09:58:58;;;;;;;3.25;2.80;;;33.70;73.30;;;;;;5057825;28;20523;-83
2022/09/13 10:01:31;;;;;;;3.33;2.93;;;33.80;74.70;;;;;;5051208;28;20020;-83
2022/09/13 10:04:07;;;;;;;3.27;2.77;;;33.80;73.40;;;;;;5045843;28;20497;-83
2022/09/13 10:06:35;;;;;;;3.85;2.70;;;34.00;70.40;;;;;;5044954;28;20371;-83
2022/09/13 10:09:05;;;;;;;3.80;2.53;;;34.10;73.30;;;;;;5064384;28;21780;-83
2022/09/13 10:11:44;;;;;;;3.60;2.55;;;34.30;72.20;;;;;;5070123;28;20021;-83
2022/09/13 10:14:46;;;;;;;5.20;2.92;;;34.50;70.20;;;;;;5052751;28;20468;-82
2022/09/13 10:17:24;;;;;;;3.57;2.73;;;34.70;69.70;;;;;;5012773;28;20036;-83
2022/09/13 10:20:00;;;;;;;3.53;2.78;;;34.90;68.10;;;;;;5040818;28;21716;-83
2022/09/13 10:22:31;;;;;;;4.18;2.92;;;35.10;68.20;;;;;;5044758;28;20031;-83
2022/09/13 10:25:15;;;;;;;4.25;2.70;;;35.20;68.20;;;;;;5052461;28;20288;-83
2022/09/13 10:27:46;;;;;;;2.92;2.63;;;35.20;65.30;;;;;;5035238;28;21377;-83
2022/09/13 10:30:30;;;;;;;2.83;2.50;;;35.30;68.20;;;;;;5058810;28;20084;-83
2022/09/13 10:32:57;;;;;;;3.13;2.42;;;35.30;62.90;;;;;;5065958;28;20598;-83
2022/09/13 10:35:23;;;;;;;2.92;2.28;;;35.10;66.10;;;;;;5059238;28;20402;-83
2022/09/13 10:37:50;;;;;;;2.67;2.47;;;35.00;65.90;;;;;;5046893;28;20112;-83
2022/09/13 10:40:29;;;;;;;2.83;2.50;;;34.90;65.70;;;;;;5065597;28;20028;-83
2022/09/13 10:43:02;;;;;;;3.77;2.40;;;34.80;62.40;;;;;;5065386;28;20035;-83
2022/09/13 10:45:30;;;;;;;2.70;2.40;;;34.70;63.10;;;;;;5048787;28;20056;-83
2022/09/13 10:48:09;;;;;;;3.45;2.20;;;34.70;64.10;;;;;;5052477;28;20048;-83
2022/09/13 10:50:35;;;;;;;3.15;2.35;;;34.70;61.90;;;;;;5060569;28;20518;-83
2022/09/13 10:53:04;;;;;;;3.80;2.40;;;34.70;65.20;;;;;;5049021;28;20368;-83
2022/09/13 10:55:53;;;;;;;3.73;2.60;;;34.70;65.40;;;;;;5048431;28;20108;-82
2022/09/13 10:58:19;;;;;;;3.00;2.08;;;34.80;61.00;;;;;;5044373;28;20035;-83
2022/09/13 11:01:00;;;;;;;2.50;2.28;;;34.80;64.80;;;;;;5060086;28;20112;-83
2022/09/13 11:03:51;;;;;;;3.95;1.90;;;34.70;60.40;;;;;;5066274;28;20032;-83
2022/09/13 11:06:43;;;;;;;2.83;2.20;;;34.70;61.10;;;;;;5049262;28;20024;-83
2022/09/13 11:09:27;;;;;;;2.53;2.20;;;34.70;59.60;;;;;;5047129;28;20043;-83
2022/09/13 11:12:14;;;;;;;2.05;1.85;;;34.60;60.50;;;;;;5071749;28;20617;-83
2022/09/13 11:15:00;;;;;;;2.30;1.83;;;34.60;63.20;;;;;;5058165;28;20040;-83
2022/09/13 11:18:04;;;;;;;2.70;2.03;;;34.60;61.90;;;;;;5062194;28;20513;-83
2022/09/13 11:20:51;;;;;;;2.38;2.17;;;34.70;60.40;;;;;;5061672;28;20434;-83
2022/09/13 11:23:48;;;;;;;2.33;2.13;;;34.80;60.20;;;;;;5048872;28;20032;-83
2022/09/13 11:26:38;;;;;;;2.42;2.22;;;34.90;60.70;;;;;;5070587;28;20481;-83
2022/09/13 11:29:31;;;;;;;2.60;2.03;;;35.00;59.50;;;;;;5051031;28;20036;-83
2022/09/13 11:32:34;;;;;;;2.78;2.20;;;35.10;59.30;;;;;;5066629;28;20645;-83
2022/09/13 11:35:35;;;;;;;2.30;2.10;;;35.30;59.40;;;;;;5076976;27;20205;-83
2022/09/13 11:38:10;;;;;;;2.13;1.90;;;35.30;59.20;;;;;;5008376;28;20627;-83
2022/09/13 11:40:46;;;;;;;2.20;2.00;;;35.40;59.60;;;;;;5039948;28;20035;-83
2022/09/13 11:43:18;;;;;;;2.45;2.10;;;35.40;58.60;;;;;;5061565;28;20023;-83
2022/09/13 11:45:59;;;;;;;2.95;2.50;;;35.50;62.00;;;;;;5078348;28;20499;-83
2022/09/13 11:48:33;;;;;;;2.75;2.47;;;35.80;59.30;;;;;;5064378;28;20164;-83
2022/09/13 11:51:34;;;;;;;3.97;2.40;;;36.00;61.70;;;;;;5068756;28;20277;-83
2022/09/13 11:54:11;;;;;;;2.50;2.30;;;36.10;56.30;;;;;;5047640;28;20634;-83
2022/09/13 11:56:45;;;;;;;2.50;2.10;;;36.10;57.00;;;;;;5059814;28;20028;-83
2022/09/13 11:59:42;;;;;;;2.97;2.30;;;36.10;57.10;;;;;;5070788;28;20086;-83
2022/09/13 12:02:20;;;;;;;2.33;2.13;;;35.90;55.00;;;;;;5056844;28;20708;-83
2022/09/13 12:05:06;;;;;;;2.67;2.27;;;35.80;55.80;;;;;;5063843;28;20008;-83
2022/09/13 12:07:43;;;;;;;2.33;2.13;;;35.70;55.70;;;;;;5078159;28;20415;-83
2022/09/13 12:10:36;;;;;;;2.50;2.00;;;35.80;56.50;;;;;;5053601;28;20032;-83
2022/09/13 12:13:03;;;;;;;2.53;2.17;;;36.00;56.50;;;;;;5073066;28;20601;-83
2022/09/13 12:15:37;;;;;;;2.72;2.20;;;36.10;59.50;;;;;;5081502;28;20200;-83
2022/09/13 12:18:05;;;;;;;2.70;2.50;;;36.20;56.40;;;;;;5065709;28;20038;-83
2022/09/13 12:20:37;;;;;;;2.45;1.90;;;36.30;57.20;;;;;;5076341;28;20179;-83
2022/09/13 12:23:10;;;;;;;2.03;1.92;;;36.40;56.50;;;;;;5058276;28;20249;-83
2022/09/13 12:25:56;;;;;;;3.00;2.20;;;36.30;56.30;;;;;;5037020;28;20027;-83
2022/09/13 12:28:28;;;;;;;2.40;2.20;;;36.20;54.50;;;;;;5052225;28;20029;-83
2022/09/13 12:31:03;;;;;;;3.30;2.20;;;36.20;55.80;;;;;;5058196;28;20017;-83
2022/09/13 12:33:29;;;;;;;4.00;2.05;;;36.10;54.60;;;;;;5063982;28;20496;-83
2022/09/13 12:36:24;;;;;;;2.40;2.20;;;36.10;57.00;;;;;;5076642;28;20028;-83
2022/09/13 12:39:41;;;;;;;2.38;2.10;;;35.90;52.70;;;;;;5029829;28;20404;-83
2022/09/13 12:42:25;;;;;;;1.87;1.70;;;35.80;52.70;;;;;;5003988;28;20264;-83
2022/09/13 12:44:51;;;;;;;2.30;2.03;;;35.50;53.20;;;;;;5063177;27;20055;-83
2022/09/13 12:47:53;;;;;;;2.03;1.80;;;35.30;54.90;;;;;;5057511;28;20331;-83
2022/09/13 12:50:40;;;;;;;2.10;1.90;;;35.10;53.40;;;;;;5046798;28;20037;-83
2022/09/13 12:53:43;;;;;;;2.40;1.50;;;34.90;52.40;;;;;;5076546;28;20031;-83
2022/09/13 12:56:15;;;;;;;2.17;1.65;;;34.70;52.40;;;;;;5070882;28;20583;-83
2022/09/13 12:58:46;;;;;;;2.38;1.70;;;34.40;54.00;;;;;;5061154;28;20032;-83
2022/09/13 13:01:29;;;;;;;2.53;1.77;;;34.20;53.70;;;;;;5048985;28;20040;-83
2022/09/13 13:04:20;;;;;;;2.85;1.60;;;34.00;52.90;;;;;;5060764;28;20343;-83
2022/09/13 13:06:57;;;;;;;2.13;1.50;;;33.90;53.70;;;;;;5068006;28;20077;-83
2022/09/13 13:09:41;;;;;;;2.22;1.77;;;33.70;53.60;;;;;;5059200;28;20044;-83
2022/09/13 13:12:25;;;;;;;2.50;1.52;;;33.60;55.40;;;;;;5056056;28;20085;-82
2022/09/13 13:14:55;;;;;;;2.42;1.70;;;33.50;55.50;;;;;;5061029;28;20111;-83
2022/09/13 13:17:50;;;;;;;2.33;1.52;;;33.30;55.80;;;;;;5052545;28;20034;-83
2022/09/13 13:20:39;;;;;;;2.27;1.70;;;33.10;55.00;;;;;;5049537;28;20024;-83